Time;durP1;ratioP1;P1;durP2;ratioP2;P2;SDS_P1;SDS_P2;PMS_P1;PMS_P2;Temp;Humidity;BMP_temperature;BMP_pressure;BME280_temperature;BME280_humidity;BME280_pressure;Samples;Min_cycle;Max_cycle;Signal;HPM_P1;HPM_P2
2022/02/16 00:04:23;;;;;;;9.60;8.60;;;6.50;99.90;;;;;;4991710;28;20485;-71
2022/02/16 00:07:08;;;;;;;10.13;9.00;;;6.50;99.90;;;;;;4996242;28;21039;-71
2022/02/16 00:09:54;;;;;;;10.40;9.30;;;6.50;99.90;;;;;;4992847;28;20960;-71
2022/02/16 00:13:03;;;;;;;9.47;8.57;;;6.50;99.90;;;;;;4997058;28;20563;-71
2022/02/16 00:19:03;;;;;;;10.47;9.07;;;6.50;99.90;;;;;;4992866;28;20557;-71
2022/02/16 00:24:53;;;;;;;8.97;8.07;;;6.50;99.90;;;;;;4993240;28;20853;-71
2022/02/16 00:27:30;;;;;;;9.27;7.20;;;6.50;99.90;;;;;;4996109;28;20905;-71
2022/02/16 00:30:30;;;;;;;8.67;7.77;;;6.50;99.90;;;;;;4994111;28;20532;-70
2022/02/16 00:33:14;;;;;;;7.30;6.60;;;6.50;99.90;;;;;;4994528;28;22729;-71
2022/02/16 00:36:15;;;;;;;;;;;;;;;;;;;;;
2022/02/16 00:39:03;;;;;;;6.70;6.00;;;6.50;99.90;;;;;;4994687;28;20579;-71
2022/02/16 00:41:59;;;;;;;7.90;7.07;;;6.50;99.90;;;;;;4992046;28;20500;-72
2022/02/16 00:47:57;;;;;;;6.50;5.90;;;6.50;99.90;;;;;;4994454;28;20976;-71
2022/02/16 00:50:39;;;;;;;5.47;4.97;;;6.50;99.90;;;;;;4988746;28;20547;-70
2022/02/16 00:53:36;;;;;;;4.70;4.30;;;6.50;99.90;;;;;;4995402;28;20460;-72
2022/02/16 00:56:54;;;;;;;4.33;3.93;;;6.60;99.90;;;;;;4994911;28;20507;-70
2022/02/16 00:59:41;;;;;;;4.77;4.30;;;6.60;99.90;;;;;;4995426;28;20515;-71
2022/02/16 01:02:29;;;;;;;4.50;4.10;;;6.60;99.90;;;;;;4994734;28;20495;-71
2022/02/16 01:05:20;;;;;;;4.90;4.50;;;6.60;99.90;;;;;;4993965;28;20530;-71
2022/02/16 01:08:16;;;;;;;4.97;4.50;;;6.60;99.90;;;;;;5000602;28;20457;-71
2022/02/16 01:11:14;;;;;;;;;;;;;;;;;;;;;
2022/02/16 01:16:59;;;;;;;5.00;4.43;;;6.50;99.90;;;;;;4975880;28;20883;-70
2022/02/16 01:19:46;;;;;;;6.67;5.30;;;6.50;99.90;;;;;;4994669;28;21046;-70
2022/02/16 01:22:53;;;;;;;5.53;4.87;;;6.50;99.90;;;;;;4996128;28;20499;-70
2022/02/16 01:25:35;;;;;;;5.70;5.17;;;6.50;99.90;;;;;;5001029;28;20502;-70
2022/02/16 01:28:15;;;;;;;6.30;5.67;;;6.60;99.90;;;;;;5000400;28;20463;-71
2022/02/16 01:31:09;;;;;;;6.20;5.60;;;6.60;99.90;;;;;;4998745;28;20496;-70
2022/02/16 01:34:04;;;;;;;6.43;5.70;;;6.50;99.90;;;;;;4997600;28;20486;-70
2022/02/16 01:36:52;;;;;;;7.00;6.30;;;6.50;99.90;;;;;;5002665;28;20518;-70
2022/02/16 01:39:38;;;;;;;7.30;6.30;;;6.50;99.90;;;;;;4999523;28;20484;-70
2022/02/16 01:42:33;;;;;;;7.47;6.43;;;6.50;99.90;;;;;;4999688;28;20561;-71
2022/02/16 01:45:12;;;;;;;7.00;6.20;;;6.60;99.90;;;;;;5000173;28;20545;-71
2022/02/16 01:47:50;;;;;;;7.57;6.67;;;6.60;99.90;;;;;;4998042;28;20464;-71
2022/02/16 01:50:50;;;;;;;9.00;6.40;;;6.60;99.90;;;;;;4999490;28;20482;-71
2022/02/16 01:53:45;;;;;;;8.83;6.43;;;6.60;99.90;;;;;;5001171;28;21184;-70
2022/02/16 01:56:25;;;;;;;8.17;6.50;;;6.60;99.90;;;;;;4998663;28;20497;-71
2022/02/16 01:59:06;;;;;;;7.30;6.50;;;6.60;99.90;;;;;;4999161;28;21296;-71
2022/02/16 02:01:55;;;;;;;7.00;6.03;;;6.60;99.90;;;;;;4998619;28;20508;-71
2022/02/16 02:04:42;;;;;;;8.20;7.37;;;6.60;99.90;;;;;;4998306;28;21035;-71
2022/02/16 02:07:28;;;;;;;6.93;6.00;;;6.60;99.90;;;;;;4998365;28;20527;-71
2022/02/16 02:10:22;;;;;;;6.90;5.83;;;6.70;99.90;;;;;;5000549;28;20476;-71
2022/02/16 02:13:26;;;;;;;6.10;5.30;;;6.60;99.90;;;;;;4998909;28;20576;-71
2022/02/16 02:16:15;;;;;;;6.37;5.77;;;6.70;99.90;;;;;;5000062;28;20500;-71
2022/02/16 02:19:20;;;;;;;7.80;6.40;;;6.70;99.90;;;;;;4997273;28;20480;-71
2022/02/16 02:22:21;;;;;;;8.30;6.73;;;6.70;99.90;;;;;;4995994;28;20538;-71
2022/02/16 02:25:10;;;;;;;6.97;6.27;;;6.70;99.90;;;;;;4991913;28;20880;-71
2022/02/16 02:28:13;;;;;;;8.80;7.00;;;6.70;99.90;;;;;;4989573;28;20477;-71
2022/02/16 02:30:57;;;;;;;8.10;7.10;;;6.80;99.90;;;;;;4999147;28;20517;-71
2022/02/16 02:33:40;;;;;;;9.27;7.00;;;6.80;99.90;;;;;;4996749;28;20499;-71
2022/02/16 02:36:19;;;;;;;9.03;7.33;;;6.80;99.90;;;;;;5000252;28;20465;-72
2022/02/16 02:38:58;;;;;;;9.40;7.57;;;6.80;99.90;;;;;;4998334;28;20483;-71
2022/02/16 02:41:52;;;;;;;7.30;6.50;;;6.80;99.90;;;;;;4998678;28;20488;-71
2022/02/16 02:44:58;;;;;;;9.47;7.97;;;6.80;99.90;;;;;;4997612;28;20599;-71
2022/02/16 02:48:12;;;;;;;9.87;8.83;;;6.80;99.90;;;;;;4994615;28;20463;-71
2022/02/16 02:50:53;;;;;;;10.27;8.50;;;6.80;99.90;;;;;;4993171;28;20575;-71
2022/02/16 02:53:35;;;;;;;10.87;8.37;;;6.80;99.90;;;;;;4994760;28;20499;-71
2022/02/16 02:56:31;;;;;;;10.10;7.83;;;6.80;99.90;;;;;;4997924;28;20517;-70
2022/02/16 02:59:16;;;;;;;10.30;8.90;;;6.90;99.90;;;;;;4999103;28;20473;-71
2022/02/16 03:02:15;;;;;;;12.87;9.63;;;6.90;99.90;;;;;;4996873;28;20487;-71
2022/02/16 03:04:48;;;;;;;14.63;10.47;;;6.90;99.90;;;;;;4995470;28;21096;-70
2022/02/16 03:07:25;;;;;;;11.17;9.97;;;6.90;99.90;;;;;;4997664;28;21026;-71
2022/02/16 03:10:22;;;;;;;12.87;10.93;;;6.90;99.90;;;;;;4995616;28;21022;-70
2022/02/16 03:12:52;;;;;;;12.70;10.20;;;6.90;99.90;;;;;;4998372;28;20493;-70
2022/02/16 03:15:49;;;;;;;12.40;10.70;;;6.90;99.90;;;;;;4998228;28;20496;-71
2022/02/16 03:18:39;;;;;;;13.30;11.13;;;6.90;99.90;;;;;;4996897;28;20499;-70
2022/02/16 03:21:23;;;;;;;12.80;11.50;;;6.90;99.90;;;;;;4999162;28;20540;-70
2022/02/16 03:24:08;;;;;;;14.53;11.90;;;7.00;99.90;;;;;;4998541;28;20491;-71
2022/02/16 03:26:42;;;;;;;14.03;11.60;;;7.00;99.90;;;;;;4999420;28;20976;-70
2022/02/16 03:29:31;;;;;;;13.10;11.17;;;7.00;99.90;;;;;;4999331;28;21334;-70
2022/02/16 03:32:10;;;;;;;13.13;11.07;;;7.00;99.90;;;;;;4997412;28;20853;-70
2022/02/16 03:34:59;;;;;;;13.40;11.50;;;7.00;99.90;;;;;;4996723;28;20495;-70
2022/02/16 03:37:55;;;;;;;13.30;11.40;;;7.10;99.90;;;;;;4998589;28;20470;-70
2022/02/16 03:40:48;;;;;;;13.17;11.40;;;7.10;99.90;;;;;;4995660;28;20561;-70
2022/02/16 03:43:24;;;;;;;12.70;11.10;;;7.10;99.90;;;;;;4996992;28;20547;-70
2022/02/16 03:46:06;;;;;;;;;;;;;;;;;;;;;
2022/02/16 03:48:58;;;;;;;13.00;11.60;;;7.10;99.90;;;;;;4997174;28;20560;-70
2022/02/16 03:51:33;;;;;;;13.70;11.43;;;7.20;99.90;;;;;;4991141;28;20569;-70
2022/02/16 03:54:10;;;;;;;15.30;11.77;;;7.10;99.90;;;;;;4997307;28;20484;-70
2022/02/16 03:56:50;;;;;;;12.37;10.50;;;7.10;99.90;;;;;;4997314;28;20461;-70
2022/02/16 03:59:49;;;;;;;14.10;11.00;;;7.10;99.90;;;;;;4996150;28;20510;-71
2022/02/16 04:02:43;;;;;;;12.70;11.40;;;7.10;99.90;;;;;;4991165;28;20467;-70
2022/02/16 04:05:56;;;;;;;13.03;11.57;;;7.10;99.90;;;;;;4996078;28;20492;-71
2022/02/16 04:09:01;;;;;;;15.47;12.20;;;7.10;99.90;;;;;;4979107;28;20465;-70
2022/02/16 04:11:42;;;;;;;14.40;11.33;;;7.20;99.90;;;;;;4973495;28;20540;-71
2022/02/16 04:14:31;;;;;;;13.13;11.50;;;7.20;99.90;;;;;;4996853;28;20493;-70
2022/02/16 04:17:18;;;;;;;13.60;11.97;;;7.20;99.90;;;;;;4997990;28;20465;-71
2022/02/16 04:20:32;;;;;;;14.13;12.57;;;7.30;99.90;;;;;;4996791;28;20531;-71
2022/02/16 04:26:14;;;;;;;12.40;11.10;;;7.30;99.90;;;;;;4994538;28;20531;-70
2022/02/16 04:28:50;;;;;;;13.07;11.67;;;7.30;99.90;;;;;;4993393;28;20476;-71
2022/02/16 04:31:45;;;;;;;13.47;11.23;;;7.30;99.90;;;;;;4990852;28;20504;-69
2022/02/16 04:34:27;;;;;;;13.60;11.57;;;7.30;99.90;;;;;;4994386;28;20515;-70
2022/02/16 04:37:03;;;;;;;14.70;11.90;;;7.30;99.90;;;;;;4996440;28;21039;-69
2022/02/16 04:39:42;;;;;;;15.57;12.90;;;7.30;99.90;;;;;;4995103;28;20992;-69
2022/02/16 04:42:22;;;;;;;14.03;11.43;;;7.40;99.90;;;;;;4997224;28;20917;-70
2022/02/16 04:45:14;;;;;;;14.93;12.17;;;7.30;99.90;;;;;;4996850;28;20519;-70
2022/02/16 04:48:08;;;;;;;14.60;11.40;;;7.40;99.90;;;;;;4996006;28;20460;-72
2022/02/16 04:50:44;;;;;;;12.33;9.80;;;7.40;99.90;;;;;;4995203;28;20839;-72
2022/02/16 04:53:40;;;;;;;13.20;10.70;;;7.40;99.90;;;;;;4991923;28;20494;-69
2022/02/16 04:56:46;;;;;;;13.47;10.03;;;7.40;99.90;;;;;;4995325;28;20985;-70
2022/02/16 04:59:49;;;;;;;12.63;9.47;;;7.40;99.90;;;;;;4995921;28;20484;-70
2022/02/16 05:02:29;;;;;;;10.10;8.70;;;7.40;99.90;;;;;;4997472;28;20469;-70
2022/02/16 05:05:11;;;;;;;9.90;8.00;;;7.40;99.90;;;;;;4998445;28;20499;-70
2022/02/16 05:08:00;;;;;;;10.63;9.23;;;7.40;99.90;;;;;;4991310;28;20468;-69
2022/02/16 05:10:37;;;;;;;10.83;8.70;;;7.40;99.90;;;;;;4994528;28;20534;-70
2022/02/16 05:13:20;;;;;;;12.73;9.73;;;7.40;99.90;;;;;;4993906;28;20519;-70
2022/02/16 05:16:14;;;;;;;13.47;11.10;;;7.40;99.90;;;;;;4995877;28;20461;-70
2022/02/16 05:18:55;;;;;;;13.07;11.37;;;7.40;99.90;;;;;;4997776;28;21059;-70
2022/02/16 05:21:42;;;;;;;13.80;10.87;;;7.40;99.90;;;;;;5009059;28;20596;-71
2022/02/16 05:24:25;;;;;;;12.83;10.40;;;7.40;99.90;;;;;;4995148;28;20582;-70
2022/02/16 05:27:10;;;;;;;15.20;12.00;;;7.50;99.90;;;;;;4995424;28;20503;-70
2022/02/16 05:30:09;;;;;;;13.50;10.60;;;7.50;99.90;;;;;;4994455;28;20503;-70
2022/02/16 05:35:41;;;;;;;11.93;9.70;;;7.50;99.90;;;;;;4994819;28;20852;-70
2022/02/16 05:38:29;;;;;;;11.00;8.87;;;7.50;99.90;;;;;;4994653;28;20473;-71
2022/02/16 05:41:24;;;;;;;;;;;;;;;;;;;;;
2022/02/16 05:44:29;;;;;;;10.67;8.87;;;7.50;99.90;;;;;;4993977;28;20552;-70
2022/02/16 05:47:23;;;;;;;10.80;8.30;;;7.50;99.90;;;;;;4994633;28;20474;-70
2022/02/16 05:50:01;;;;;;;10.10;8.43;;;7.50;99.90;;;;;;4989955;28;20489;-71
2022/02/16 05:52:55;;;;;;;;;;;;;;;;;;;;;
2022/02/16 05:55:34;;;;;;;11.10;9.30;;;7.50;99.90;;;;;;4984064;28;20524;-71
2022/02/16 05:58:34;;;;;;;9.87;8.40;;;7.50;99.90;;;;;;4988144;28;20493;-69
2022/02/16 06:01:30;;;;;;;11.20;8.47;;;7.50;99.90;;;;;;4988407;28;20493;-70
2022/02/16 06:04:16;;;;;;;9.67;8.00;;;7.50;99.90;;;;;;4993921;28;20497;-70
2022/02/16 06:07:06;;;;;;;7.60;6.57;;;7.50;99.90;;;;;;4992632;28;20501;-70
2022/02/16 06:09:53;;;;;;;7.67;6.47;;;7.50;99.90;;;;;;4998741;28;20460;-70
2022/02/16 06:12:36;;;;;;;8.60;6.47;;;7.50;99.90;;;;;;4996014;28;20559;-70
2022/02/16 06:15:28;;;;;;;6.83;5.97;;;7.50;99.90;;;;;;4995155;28;20486;-70
2022/02/16 06:18:21;;;;;;;7.40;6.60;;;7.50;99.90;;;;;;4995626;28;20465;-70
2022/02/16 06:21:20;;;;;;;7.00;5.83;;;7.50;99.90;;;;;;4996535;28;20481;-70
2022/02/16 06:24:07;;;;;;;6.43;5.60;;;7.50;99.90;;;;;;4998729;28;20480;-71
2022/02/16 06:30:27;;;;;;;5.70;5.10;;;7.50;99.90;;;;;;4992177;28;20481;-71
2022/02/16 06:33:01;;;;;;;5.90;5.10;;;7.50;99.90;;;;;;4970333;28;20503;-72
2022/02/16 06:35:28;;;;;;;5.90;5.10;;;7.50;99.90;;;;;;4994686;28;21095;-72
2022/02/16 06:38:03;;;;;;;5.83;5.23;;;7.50;99.90;;;;;;4993539;28;20545;-70
2022/02/16 06:40:37;;;;;;;5.97;5.37;;;7.40;99.90;;;;;;4994121;28;20547;-71
2022/02/16 06:43:05;;;;;;;7.57;6.77;;;7.40;99.90;;;;;;4996258;28;20474;-71
2022/02/16 06:45:33;;;;;;;5.37;4.87;;;7.50;99.90;;;;;;4994170;28;20509;-71
2022/02/16 06:48:01;;;;;;;7.10;5.80;;;7.50;99.90;;;;;;4994817;28;20511;-71
2022/02/16 06:50:32;;;;;;;6.70;5.40;;;7.50;99.90;;;;;;4996011;28;20938;-72
2022/02/16 06:53:10;;;;;;;6.10;5.50;;;7.50;99.90;;;;;;4996469;28;20470;-71
2022/02/16 06:55:44;;;;;;;7.03;5.40;;;7.40;99.90;;;;;;4993914;28;20536;-70
2022/02/16 06:58:16;;;;;;;6.90;5.73;;;7.50;99.90;;;;;;4994364;28;20543;-71
2022/02/16 07:00:44;;;;;;;7.47;6.47;;;7.50;99.90;;;;;;4993312;28;20474;-70
2022/02/16 07:03:13;;;;;;;6.03;5.43;;;7.40;99.90;;;;;;4992299;28;20470;-72
2022/02/16 07:05:41;;;;;;;7.13;6.40;;;7.50;99.90;;;;;;4984570;28;20476;-71
2022/02/16 07:08:11;;;;;;;6.10;5.50;;;7.50;99.90;;;;;;4991755;28;20529;-70
2022/02/16 07:10:39;;;;;;;6.60;5.83;;;7.50;99.90;;;;;;4996454;28;20485;-70
2022/02/16 07:13:07;;;;;;;5.93;5.33;;;7.50;99.90;;;;;;4997041;28;20558;-70
2022/02/16 07:15:35;;;;;;;5.13;4.63;;;7.50;99.90;;;;;;4996632;28;21082;-70
2022/02/16 07:18:04;;;;;;;5.90;5.30;;;7.50;99.90;;;;;;4995906;28;20464;-70
2022/02/16 07:20:32;;;;;;;5.70;5.20;;;7.50;99.90;;;;;;4992863;28;21001;-70
2022/02/16 07:23:00;;;;;;;6.07;5.47;;;7.40;99.90;;;;;;4995771;28;20991;-70
2022/02/16 07:25:29;;;;;;;5.50;5.00;;;7.40;99.90;;;;;;4996370;28;20547;-70
2022/02/16 07:28:13;;;;;;;5.20;4.70;;;7.50;99.90;;;;;;4997077;28;20465;-73
2022/02/16 07:30:45;;;;;;;6.47;5.87;;;7.40;99.90;;;;;;4993785;28;20483;-70
2022/02/16 07:33:14;;;;;;;6.00;5.13;;;7.40;99.90;;;;;;4996703;28;20576;-71
2022/02/16 07:35:41;;;;;;;5.97;5.37;;;7.50;99.90;;;;;;4994590;28;20464;-70
2022/02/16 07:38:10;;;;;;;6.30;5.53;;;7.50;99.90;;;;;;4996044;28;20464;-71
2022/02/16 07:40:41;;;;;;;5.83;5.23;;;7.40;99.90;;;;;;4994787;28;20496;-71
2022/02/16 07:43:10;;;;;;;6.03;5.43;;;7.40;99.90;;;;;;4995849;28;20980;-71
2022/02/16 07:45:38;;;;;;;5.53;5.03;;;7.40;99.90;;;;;;4996345;28;20995;-70
2022/02/16 07:48:06;;;;;;;6.27;5.67;;;7.50;99.90;;;;;;4994178;28;20480;-70
2022/02/16 07:50:37;;;;;;;6.50;5.30;;;7.50;99.90;;;;;;4993539;28;20518;-70
2022/02/16 07:53:05;;;;;;;5.67;5.07;;;7.50;99.90;;;;;;4995048;28;20461;-70
2022/02/16 07:55:33;;;;;;;6.33;5.67;;;7.50;99.90;;;;;;4995102;28;20521;-70
2022/02/16 07:58:04;;;;;;;5.80;5.20;;;7.50;99.90;;;;;;4995569;28;20475;-70
2022/02/16 08:00:34;;;;;;;6.50;5.80;;;7.60;99.90;;;;;;4991939;28;20481;-71
2022/02/16 08:03:03;;;;;;;5.23;4.73;;;7.60;99.90;;;;;;4994860;28;20507;-70
2022/02/16 08:05:31;;;;;;;6.27;5.00;;;7.60;99.90;;;;;;4994027;28;20489;-71
2022/02/16 08:07:58;;;;;;;5.77;5.17;;;7.60;99.90;;;;;;4994280;28;20453;-71
2022/02/16 08:10:27;;;;;;;7.40;5.13;;;7.70;99.90;;;;;;4995295;28;20550;-71
2022/02/16 08:12:57;;;;;;;13.67;6.10;;;7.70;99.90;;;;;;4998146;28;20489;-71
2022/02/16 08:15:27;;;;;;;5.77;5.17;;;7.70;99.90;;;;;;4993243;28;20946;-71
2022/02/16 08:17:55;;;;;;;5.47;4.90;;;7.70;99.90;;;;;;4989974;28;20591;-70
2022/02/16 08:20:24;;;;;;;5.80;5.20;;;7.70;99.90;;;;;;4994724;28;20492;-70
2022/02/16 08:22:51;;;;;;;4.93;4.43;;;7.80;99.90;;;;;;4996428;28;20598;-71
2022/02/16 19:01:39;;;;;;;14.30;6.40;;;10.70;99.90;;;;;;5434739;23;20560;-88
2022/02/16 19:04:07;;;;;;;14.77;6.30;;;10.80;99.90;;;;;;5009043;23;20514;-71
2022/02/16 19:07:16;;;;;;;15.67;6.70;;;10.70;99.90;;;;;;5107754;27;21133;-72
2022/02/16 19:09:44;;;;;;;17.77;7.40;;;10.70;99.90;;;;;;5110772;27;20467;-72
2022/02/16 19:12:17;;;;;;;12.80;6.60;;;10.70;99.90;;;;;;5117426;28;20483;-72
2022/02/16 19:14:46;;;;;;;16.07;6.80;;;10.60;99.90;;;;;;5104446;28;20461;-71
2022/02/16 19:17:16;;;;;;;18.37;7.30;;;10.60;99.90;;;;;;5112394;28;20881;-71
2022/02/16 19:19:45;;;;;;;14.50;7.85;;;10.50;99.90;;;;;;5129326;22;20455;-70
2022/02/16 19:22:17;;;;;;;14.60;6.50;;;10.50;99.90;;;;;;5023436;28;20522;-70
2022/02/16 19:24:59;;;;;;;12.97;6.77;;;10.50;99.90;;;;;;5014191;28;21051;-70
2022/02/16 19:27:39;;;;;;;18.10;6.00;;;10.50;99.90;;;;;;5017349;28;20495;-71
2022/02/16 19:30:12;;;;;;;14.33;7.30;;;10.40;99.90;;;;;;5016455;28;20488;-68
2022/02/16 19:32:42;;;;;;;16.53;6.53;;;10.40;99.90;;;;;;5020267;28;20518;-70
2022/02/16 19:35:20;;;;;;;12.37;7.07;;;10.40;99.90;;;;;;5022457;28;20465;-70
2022/02/16 19:37:48;;;;;;;12.40;6.83;;;10.40;99.90;;;;;;5020640;28;20558;-68
2022/02/16 19:40:20;;;;;;;14.80;7.43;;;10.40;99.90;;;;;;4987218;28;20638;-69
2022/02/16 19:42:51;;;;;;;16.07;7.67;;;10.40;99.90;;;;;;5003086;28;20460;-70
2022/02/16 19:45:25;;;;;;;13.20;7.93;;;10.50;99.90;;;;;;4994933;28;20475;-68
2022/02/16 19:48:01;;;;;;;19.27;8.00;;;10.40;99.90;;;;;;4994955;28;20507;-68
2022/02/16 19:50:29;;;;;;;13.90;9.10;;;10.40;99.90;;;;;;4989958;28;20539;-69
2022/02/16 19:53:06;;;;;;;12.70;8.10;;;10.30;99.90;;;;;;4989451;28;20592;-68
2022/02/16 19:55:42;;;;;;;15.10;8.90;;;10.40;99.90;;;;;;4993302;28;20453;-68
2022/02/16 19:58:12;;;;;;;12.13;8.00;;;10.30;99.90;;;;;;4992706;28;20457;-68
2022/02/16 20:00:44;;;;;;;17.13;8.23;;;10.30;99.90;;;;;;4993322;28;20543;-69
2022/02/16 20:03:23;;;;;;;15.97;8.80;;;10.30;99.90;;;;;;4994099;28;20476;-69
2022/02/16 20:05:51;;;;;;;16.33;9.03;;;10.30;99.90;;;;;;4994186;28;20480;-69
2022/02/16 20:08:19;;;;;;;10.47;8.70;;;10.30;99.90;;;;;;4991776;28;20457;-69
2022/02/16 20:10:54;;;;;;;13.07;7.80;;;10.30;99.90;;;;;;4995543;28;20544;-69
2022/02/16 20:13:22;;;;;;;14.43;8.03;;;10.40;99.90;;;;;;4997057;28;20471;-69
2022/02/16 20:15:56;;;;;;;12.53;8.07;;;10.40;99.90;;;;;;4998301;28;20448;-67
2022/02/16 20:18:35;;;;;;;11.40;6.90;;;10.40;99.90;;;;;;4979177;28;20560;-73
2022/02/16 20:21:04;;;;;;;12.30;6.70;;;10.40;99.90;;;;;;4981623;28;20505;-68
2022/02/16 20:23:42;;;;;;;12.30;6.00;;;10.30;99.90;;;;;;4996887;28;20914;-69
2022/02/16 20:26:24;;;;;;;10.60;6.63;;;10.30;99.90;;;;;;4983497;28;20481;-68
2022/02/16 20:28:52;;;;;;;8.50;5.73;;;10.40;99.90;;;;;;4989676;28;20480;-68
2022/02/16 20:31:22;;;;;;;9.40;5.47;;;10.40;99.90;;;;;;4990629;28;20473;-68
2022/02/16 20:33:55;;;;;;;8.10;4.67;;;10.40;99.90;;;;;;4984602;28;20465;-68
2022/02/16 20:36:24;;;;;;;7.70;4.83;;;10.40;99.90;;;;;;4983529;28;20461;-68
2022/02/16 20:39:33;;;;;;;8.80;4.73;;;10.50;99.90;;;;;;4986869;28;20551;-67
2022/02/16 20:42:35;;;;;;;6.90;4.60;;;10.50;99.90;;;;;;4979423;28;20470;-68
2022/02/16 20:45:23;;;;;;;8.20;4.77;;;10.50;99.90;;;;;;4979254;28;20478;-68
2022/02/16 20:48:16;;;;;;;6.03;4.50;;;10.50;99.90;;;;;;4981826;28;20495;-67
2022/02/16 20:51:03;;;;;;;6.17;4.23;;;10.60;99.90;;;;;;4983386;28;20508;-68
2022/02/16 20:54:16;;;;;;;6.83;4.07;;;10.60;99.90;;;;;;4976714;28;20525;-67
2022/02/16 20:56:56;;;;;;;6.40;4.27;;;10.60;99.90;;;;;;4977854;28;20472;-68
2022/02/16 20:59:37;;;;;;;7.20;3.80;;;10.60;99.90;;;;;;4980438;28;20489;-70
2022/02/16 21:05:32;;;;;;;5.20;3.33;;;10.70;99.90;;;;;;4977773;28;20515;-73
2022/02/16 21:08:27;;;;;;;6.03;3.00;;;10.70;99.90;;;;;;4982457;28;20465;-75
2022/02/16 21:11:10;;;;;;;4.07;3.00;;;10.70;99.90;;;;;;4978055;28;20473;-75
2022/02/16 21:14:09;;;;;;;3.83;2.90;;;10.70;99.90;;;;;;4983199;28;20475;-74
2022/02/16 21:16:45;;;;;;;3.30;2.50;;;10.80;99.90;;;;;;4981367;28;20480;-71
2022/02/16 21:19:56;;;;;;;4.95;2.45;;;10.80;99.90;;;;;;4972538;28;20531;-68
2022/02/16 21:22:45;;;;;;;3.20;2.47;;;10.90;99.90;;;;;;4977543;28;20207;-68
2022/02/16 21:25:41;;;;;;;2.57;2.00;;;10.90;99.90;;;;;;4976600;28;20538;-71
2022/02/16 21:28:29;;;;;;;2.83;2.03;;;11.00;99.90;;;;;;4976930;28;20549;-68
2022/02/16 21:31:21;;;;;;;4.03;1.80;;;11.00;99.90;;;;;;4972172;28;20473;-69
2022/02/16 21:36:57;;;;;;;2.27;1.87;;;11.10;99.90;;;;;;4976197;28;21443;-69
2022/02/16 21:39:37;;;;;;;2.33;2.10;;;11.20;99.90;;;;;;4977052;28;20561;-69
2022/02/16 21:42:19;;;;;;;2.10;1.90;;;11.20;99.90;;;;;;4977582;28;20575;-68
2022/02/16 21:45:13;;;;;;;1.77;1.50;;;11.20;99.90;;;;;;4976914;28;20474;-69
2022/02/16 21:48:00;;;;;;;1.37;1.27;;;11.20;99.90;;;;;;4976933;28;20485;-69
2022/02/16 21:50:50;;;;;;;1.50;1.00;;;11.40;99.90;;;;;;4974401;28;20528;-69
2022/02/16 21:53:52;;;;;;;;;;;;;;;;;;;;;
2022/02/16 21:59:38;;;;;;;0.77;0.77;;;11.60;99.90;;;;;;4979238;28;20488;-70
2022/02/16 22:02:24;;;;;;;1.10;0.77;;;11.60;99.90;;;;;;4976883;28;20472;-70
2022/02/16 22:08:18;;;;;;;1.17;0.60;;;11.60;99.90;;;;;;4978718;28;20588;-70
2022/02/16 22:10:50;;;;;;;0.80;0.53;;;11.60;99.90;;;;;;4976783;28;20532;-70
2022/02/16 22:13:52;;;;;;;0.60;0.60;;;11.60;99.90;;;;;;4976078;28;20501;-70
2022/02/16 22:16:44;;;;;;;1.63;0.67;;;11.50;99.90;;;;;;4982857;28;20945;-70
2022/02/16 22:19:33;;;;;;;1.80;0.90;;;11.40;99.90;;;;;;4977779;28;20840;-69
2022/02/16 22:22:35;;;;;;;1.00;0.80;;;11.30;99.90;;;;;;4980479;28;20949;-69
2022/02/16 22:25:24;;;;;;;2.20;0.73;;;11.20;99.90;;;;;;4972416;28;20862;-69
2022/02/16 22:28:31;;;;;;;3.90;1.30;;;11.10;99.90;;;;;;4976949;28;20559;-69
2022/02/16 22:34:01;;;;;;;2.40;0.77;;;10.90;99.90;;;;;;4977996;28;21043;-69
2022/02/16 22:37:14;;;;;;;2.97;1.07;;;10.80;99.90;;;;;;4982300;28;21070;-69
2022/02/16 22:40:17;;;;;;;1.40;0.87;;;10.70;99.90;;;;;;4959817;28;20548;-68
2022/02/16 22:43:16;;;;;;;3.80;0.90;;;10.60;99.90;;;;;;4976810;28;20999;-69
2022/02/16 22:46:18;;;;;;;3.07;1.00;;;10.50;99.90;;;;;;4976976;28;20985;-70
2022/02/16 22:48:56;;;;;;;1.80;0.97;;;10.40;99.90;;;;;;4974369;28;21035;-68
2022/02/16 22:55:00;;;;;;;4.10;1.13;;;10.40;99.90;;;;;;4976439;28;20996;-69
2022/02/16 22:58:12;;;;;;;3.17;1.20;;;10.40;99.90;;;;;;4977331;28;20971;-69
2022/02/16 23:00:57;;;;;;;3.90;1.40;;;10.40;99.90;;;;;;4979048;28;21043;-69
2022/02/16 23:03:25;;;;;;;3.77;1.20;;;10.40;99.90;;;;;;4978122;28;21129;-69
2022/02/16 23:11:26;;;;;;;4.27;1.53;;;10.30;99.90;;;;;;4982281;28;20629;-69
2022/02/16 23:13:58;;;;;;;4.53;1.17;;;10.40;99.90;;;;;;4985771;28;20551;-69
2022/02/16 23:16:27;;;;;;;5.63;1.80;;;10.40;99.90;;;;;;4979330;28;20473;-69
2022/02/16 23:18:55;;;;;;;6.03;1.83;;;10.40;99.90;;;;;;4977390;28;20833;-69
2022/02/16 23:21:23;;;;;;;3.37;1.60;;;10.40;99.90;;;;;;4979649;28;20588;-69
2022/02/16 23:23:52;;;;;;;5.43;1.77;;;10.40;99.90;;;;;;4977582;28;20473;-69
2022/02/16 23:26:21;;;;;;;6.20;1.90;;;10.40;99.90;;;;;;4980190;28;20461;-69
2022/02/16 23:28:49;;;;;;;4.53;1.83;;;10.40;99.90;;;;;;4980082;28;20529;-69
